sensor_id;sensor_type;location;lat;lon;timestamp;P1;durP1;ratioP1;P2;durP2;ratioP2
37365;SDS011;23239;51.504;7.456;2022-12-10T00:03:10;46.1;;;37.1;;
37365;SDS011;23239;51.504;7.456;2022-12-10T00:08:10;47.2;;;38.7;;
37365;SDS011;23239;51.504;7.456;2022-12-10T00:13:10;47.3;;;37.6;;
37365;SDS011;23239;51.504;7.456;2022-12-10T00:18:10;46;;;36.3;;
37365;SDS011;23239;51.504;7.456;2022-12-10T00:23:10;44;;;36.6;;
37365;SDS011;23239;51.504;7.456;2022-12-10T00:28:10;45.7;;;37.7;;
37365;SDS011;23239;51.504;7.456;2022-12-10T00:33:10;44.3;;;36.2;;
37365;SDS011;23239;51.504;7.456;2022-12-10T00:38:10;46;;;37.1;;
37365;SDS011;23239;51.504;7.456;2022-12-10T00:43:10;45.6;;;36.1;;
37365;SDS011;23239;51.504;7.456;2022-12-10T00:48:10;45.9;;;37.5;;
37365;SDS011;23239;51.504;7.456;2022-12-10T00:53:10;46.3;;;37.4;;
37365;SDS011;23239;51.504;7.456;2022-12-10T00:58:10;45.7;;;37.2;;
37365;SDS011;23239;51.504;7.456;2022-12-10T01:03:10;45.6;;;37.3;;
37365;SDS011;23239;51.504;7.456;2022-12-10T01:08:10;46.4;;;38.1;;
37365;SDS011;23239;51.504;7.456;2022-12-10T01:13:10;45.9;;;38.1;;
37365;SDS011;23239;51.504;7.456;2022-12-10T01:18:10;46.9;;;36.2;;
37365;SDS011;23239;51.504;7.456;2022-12-10T01:23:10;45.4;;;37.9;;
37365;SDS011;23239;51.504;7.456;2022-12-10T01:28:10;47.2;;;38.4;;
37365;SDS011;23239;51.504;7.456;2022-12-10T01:33:10;48.4;;;38.4;;
37365;SDS011;23239;51.504;7.456;2022-12-10T01:38:11;48;;;38.9;;
37365;SDS011;23239;51.504;7.456;2022-12-10T01:43:11;47.2;;;38.4;;
37365;SDS011;23239;51.504;7.456;2022-12-10T01:48:10;50.5;;;39.6;;
37365;SDS011;23239;51.504;7.456;2022-12-10T01:53:10;48.7;;;40.1;;
37365;SDS011;23239;51.504;7.456;2022-12-10T01:58:11;53.1;;;41.6;;
37365;SDS011;23239;51.504;7.456;2022-12-10T02:03:13;53.9;;;39.3;;
37365;SDS011;23239;51.504;7.456;2022-12-10T02:08:11;52.6;;;40.2;;
37365;SDS011;23239;51.504;7.456;2022-12-10T02:13:11;51.4;;;38.9;;
37365;SDS011;23239;51.504;7.456;2022-12-10T02:18:11;49.9;;;39.4;;
37365;SDS011;23239;51.504;7.456;2022-12-10T02:23:11;49.1;;;38.1;;
37365;SDS011;23239;51.504;7.456;2022-12-10T02:28:12;46;;;35.3;;
37365;SDS011;23239;51.504;7.456;2022-12-10T02:33:10;45.8;;;35.1;;
37365;SDS011;23239;51.504;7.456;2022-12-10T02:38:11;45.7;;;35.5;;
37365;SDS011;23239;51.504;7.456;2022-12-10T02:43:10;46.7;;;35.2;;
37365;SDS011;23239;51.504;7.456;2022-12-10T02:48:10;48.2;;;36.6;;
37365;SDS011;23239;51.504;7.456;2022-12-10T02:53:10;49.6;;;38.8;;
37365;SDS011;23239;51.504;7.456;2022-12-10T02:58:11;49.3;;;38.3;;
37365;SDS011;23239;51.504;7.456;2022-12-10T03:03:18;49.9;;;37.8;;
37365;SDS011;23239;51.504;7.456;2022-12-10T03:08:12;44;;;35.2;;
37365;SDS011;23239;51.504;7.456;2022-12-10T03:13:11;34.8;;;26.4;;
37365;SDS011;23239;51.504;7.456;2022-12-10T03:18:10;34.9;;;26.7;;
37365;SDS011;23239;51.504;7.456;2022-12-10T03:23:11;44.3;;;35.4;;
37365;SDS011;23239;51.504;7.456;2022-12-10T03:28:10;46.8;;;36.5;;
37365;SDS011;23239;51.504;7.456;2022-12-10T03:33:10;40.8;;;33.8;;
37365;SDS011;23239;51.504;7.456;2022-12-10T03:38:10;43.4;;;34.8;;
37365;SDS011;23239;51.504;7.456;2022-12-10T03:43:11;37.5;;;29.9;;
37365;SDS011;23239;51.504;7.456;2022-12-10T03:48:10;41.1;;;32.9;;
37365;SDS011;23239;51.504;7.456;2022-12-10T03:53:10;42.6;;;32.6;;
37365;SDS011;23239;51.504;7.456;2022-12-10T03:58:10;45.3;;;35.3;;
37365;SDS011;23239;51.504;7.456;2022-12-10T04:03:10;45.4;;;35.7;;
37365;SDS011;23239;51.504;7.456;2022-12-10T04:08:10;42.1;;;31.8;;
37365;SDS011;23239;51.504;7.456;2022-12-10T04:13:10;39.5;;;30.8;;
37365;SDS011;23239;51.504;7.456;2022-12-10T04:18:10;37.2;;;29.1;;
37365;SDS011;23239;51.504;7.456;2022-12-10T04:23:10;39.3;;;30.1;;
37365;SDS011;23239;51.504;7.456;2022-12-10T04:28:10;38;;;30.8;;
37365;SDS011;23239;51.504;7.456;2022-12-10T04:33:10;36.5;;;28.7;;
37365;SDS011;23239;51.504;7.456;2022-12-10T04:38:10;38.2;;;29.1;;
37365;SDS011;23239;51.504;7.456;2022-12-10T04:43:10;34.8;;;28.3;;
37365;SDS011;23239;51.504;7.456;2022-12-10T04:48:10;33.3;;;27.7;;
37365;SDS011;23239;51.504;7.456;2022-12-10T04:53:10;32.9;;;26.7;;
37365;SDS011;23239;51.504;7.456;2022-12-10T04:58:10;33.4;;;25.7;;
37365;SDS011;23239;51.504;7.456;2022-12-10T05:03:10;33.4;;;24.9;;
37365;SDS011;23239;51.504;7.456;2022-12-10T05:08:10;29.7;;;24.6;;
37365;SDS011;23239;51.504;7.456;2022-12-10T05:13:10;28.2;;;22.9;;
37365;SDS011;23239;51.504;7.456;2022-12-10T05:18:10;27.7;;;24.5;;
37365;SDS011;23239;51.504;7.456;2022-12-10T05:23:10;30.4;;;24;;
37365;SDS011;23239;51.504;7.456;2022-12-10T05:28:10;32;;;27;;
37365;SDS011;23239;51.504;7.456;2022-12-10T05:33:10;33.4;;;28;;
37365;SDS011;23239;51.504;7.456;2022-12-10T05:38:10;28.9;;;23.3;;
37365;SDS011;23239;51.504;7.456;2022-12-10T05:43:10;30.3;;;25.5;;
37365;SDS011;23239;51.504;7.456;2022-12-10T05:48:10;28.9;;;22.2;;
37365;SDS011;23239;51.504;7.456;2022-12-10T05:53:10;28.9;;;24.2;;
37365;SDS011;23239;51.504;7.456;2022-12-10T05:58:10;29.6;;;23.6;;
37365;SDS011;23239;51.504;7.456;2022-12-10T06:03:10;36.8;;;28;;
37365;SDS011;23239;51.504;7.456;2022-12-10T06:08:10;34;;;27.5;;
37365;SDS011;23239;51.504;7.456;2022-12-10T06:13:10;31.3;;;24.3;;
37365;SDS011;23239;51.504;7.456;2022-12-10T06:18:10;32.9;;;26.1;;
37365;SDS011;23239;51.504;7.456;2022-12-10T06:23:10;31.1;;;25.5;;
37365;SDS011;23239;51.504;7.456;2022-12-10T06:28:10;31.4;;;25.2;;
37365;SDS011;23239;51.504;7.456;2022-12-10T06:33:10;31.5;;;25.1;;
37365;SDS011;23239;51.504;7.456;2022-12-10T06:38:10;33.1;;;26.5;;
37365;SDS011;23239;51.504;7.456;2022-12-10T06:43:10;30.5;;;24.5;;
37365;SDS011;23239;51.504;7.456;2022-12-10T06:48:10;31.5;;;26.5;;
37365;SDS011;23239;51.504;7.456;2022-12-10T06:53:10;32.7;;;26.5;;
37365;SDS011;23239;51.504;7.456;2022-12-10T06:58:10;30.1;;;24.6;;
37365;SDS011;23239;51.504;7.456;2022-12-10T07:03:10;30.6;;;25.4;;
37365;SDS011;23239;51.504;7.456;2022-12-10T07:08:10;31.4;;;24.6;;
37365;SDS011;23239;51.504;7.456;2022-12-10T07:13:10;30.5;;;24.2;;
37365;SDS011;23239;51.504;7.456;2022-12-10T07:18:10;32.2;;;24.4;;
37365;SDS011;23239;51.504;7.456;2022-12-10T07:23:10;31.8;;;24.7;;
37365;SDS011;23239;51.504;7.456;2022-12-10T07:28:10;30.8;;;24.9;;
37365;SDS011;23239;51.504;7.456;2022-12-10T07:33:10;30.7;;;24.9;;
37365;SDS011;23239;51.504;7.456;2022-12-10T07:38:10;29.4;;;24;;
37365;SDS011;23239;51.504;7.456;2022-12-10T07:43:10;28.5;;;23.3;;
37365;SDS011;23239;51.504;7.456;2022-12-10T07:48:10;32.5;;;24.1;;
37365;SDS011;23239;51.504;7.456;2022-12-10T07:53:10;31.3;;;24.8;;
37365;SDS011;23239;51.504;7.456;2022-12-10T07:58:10;27.5;;;22.5;;
37365;SDS011;23239;51.504;7.456;2022-12-10T08:03:10;27.1;;;22.9;;
37365;SDS011;23239;51.504;7.456;2022-12-10T08:08:10;26.8;;;22.1;;
37365;SDS011;23239;51.504;7.456;2022-12-10T08:13:10;30.8;;;24.3;;
37365;SDS011;23239;51.504;7.456;2022-12-10T08:18:10;28.9;;;23.3;;
37365;SDS011;23239;51.504;7.456;2022-12-10T08:23:10;27.6;;;22;;
37365;SDS011;23239;51.504;7.456;2022-12-10T08:28:10;26.3;;;22.7;;
37365;SDS011;23239;51.504;7.456;2022-12-10T08:33:10;24.7;;;20.3;;
37365;SDS011;23239;51.504;7.456;2022-12-10T08:38:10;25.1;;;20.5;;
37365;SDS011;23239;51.504;7.456;2022-12-10T08:43:10;28.2;;;21.7;;
37365;SDS011;23239;51.504;7.456;2022-12-10T08:48:10;27.1;;;22.1;;
37365;SDS011;23239;51.504;7.456;2022-12-10T08:53:10;25.7;;;22.3;;
37365;SDS011;23239;51.504;7.456;2022-12-10T08:58:10;26.5;;;21.9;;
37365;SDS011;23239;51.504;7.456;2022-12-10T09:03:10;28;;;22.4;;
37365;SDS011;23239;51.504;7.456;2022-12-10T09:08:10;25.9;;;21;;
37365;SDS011;23239;51.504;7.456;2022-12-10T09:13:10;25;;;21;;
37365;SDS011;23239;51.504;7.456;2022-12-10T09:18:10;25;;;20.5;;
37365;SDS011;23239;51.504;7.456;2022-12-10T09:23:10;25.7;;;21;;
37365;SDS011;23239;51.504;7.456;2022-12-10T09:28:10;23.7;;;19.9;;
37365;SDS011;23239;51.504;7.456;2022-12-10T09:33:10;24.2;;;19.2;;
37365;SDS011;23239;51.504;7.456;2022-12-10T09:38:10;22;;;17.9;;
37365;SDS011;23239;51.504;7.456;2022-12-10T09:43:13;24.4;;;17.6;;
37365;SDS011;23239;51.504;7.456;2022-12-10T09:48:13;23.1;;;18.5;;
37365;SDS011;23239;51.504;7.456;2022-12-10T09:53:11;22.5;;;18.9;;
37365;SDS011;23239;51.504;7.456;2022-12-10T09:58:12;24.2;;;19.6;;
37365;SDS011;23239;51.504;7.456;2022-12-10T10:03:11;25.7;;;20.3;;
37365;SDS011;23239;51.504;7.456;2022-12-10T10:08:12;27;;;21.2;;
37365;SDS011;23239;51.504;7.456;2022-12-10T10:13:11;24.8;;;21.4;;
37365;SDS011;23239;51.504;7.456;2022-12-10T10:18:13;28.6;;;22.9;;
37365;SDS011;23239;51.504;7.456;2022-12-10T10:23:12;29.1;;;23;;
37365;SDS011;23239;51.504;7.456;2022-12-10T10:28:11;31.1;;;25.3;;
37365;SDS011;23239;51.504;7.456;2022-12-10T10:33:11;30;;;22.9;;
37365;SDS011;23239;51.504;7.456;2022-12-10T10:38:13;35.6;;;27.5;;
37365;SDS011;23239;51.504;7.456;2022-12-10T10:43:12;41.9;;;33.5;;
37365;SDS011;23239;51.504;7.456;2022-12-10T10:48:11;48.2;;;36.7;;
37365;SDS011;23239;51.504;7.456;2022-12-10T10:53:22;50.7;;;38;;
37365;SDS011;23239;51.504;7.456;2022-12-10T10:58:14;59.8;;;41.8;;
37365;SDS011;23239;51.504;7.456;2022-12-10T11:03:10;61.9;;;43;;
37365;SDS011;23239;51.504;7.456;2022-12-10T11:08:13;64.7;;;44.7;;
37365;SDS011;23239;51.504;7.456;2022-12-10T11:13:18;62.4;;;44.9;;
37365;SDS011;23239;51.504;7.456;2022-12-10T11:18:22;54;;;37.9;;
37365;SDS011;23239;51.504;7.456;2022-12-10T11:23:12;54.6;;;39.1;;
37365;SDS011;23239;51.504;7.456;2022-12-10T11:28:14;53.5;;;38.3;;
37365;SDS011;23239;51.504;7.456;2022-12-10T11:33:15;51.9;;;36.9;;
37365;SDS011;23239;51.504;7.456;2022-12-10T11:38:18;52.5;;;39.6;;
37365;SDS011;23239;51.504;7.456;2022-12-10T11:43:14;50.1;;;35;;
37365;SDS011;23239;51.504;7.456;2022-12-10T11:48:12;53.4;;;38.4;;
37365;SDS011;23239;51.504;7.456;2022-12-10T11:53:13;55.2;;;38.6;;
37365;SDS011;23239;51.504;7.456;2022-12-10T11:58:16;55.2;;;38.8;;
37365;SDS011;23239;51.504;7.456;2022-12-10T12:03:27;60.1;;;41.2;;
37365;SDS011;23239;51.504;7.456;2022-12-10T12:08:12;58.3;;;39.1;;
37365;SDS011;23239;51.504;7.456;2022-12-10T12:13:11;60.9;;;42.7;;
37365;SDS011;23239;51.504;7.456;2022-12-10T12:18:12;62.2;;;42.4;;
37365;SDS011;23239;51.504;7.456;2022-12-10T12:23:11;62.3;;;44.2;;
37365;SDS011;23239;51.504;7.456;2022-12-10T12:28:11;57.3;;;39.4;;
37365;SDS011;23239;51.504;7.456;2022-12-10T12:33:11;55.8;;;39.5;;
37365;SDS011;23239;51.504;7.456;2022-12-10T12:38:18;52.8;;;37;;
37365;SDS011;23239;51.504;7.456;2022-12-10T12:43:12;54.8;;;39.1;;
37365;SDS011;23239;51.504;7.456;2022-12-10T12:48:14;53;;;36.7;;
37365;SDS011;23239;51.504;7.456;2022-12-10T12:53:11;56.4;;;38.8;;
37365;SDS011;23239;51.504;7.456;2022-12-10T12:58:13;55.7;;;39.1;;
37365;SDS011;23239;51.504;7.456;2022-12-10T13:03:17;52.5;;;36.6;;
37365;SDS011;23239;51.504;7.456;2022-12-10T13:08:42;56.1;;;39.1;;
37365;SDS011;23239;51.504;7.456;2022-12-10T13:13:17;58.6;;;40.2;;
37365;SDS011;23239;51.504;7.456;2022-12-10T13:18:20;59.8;;;42.1;;
37365;SDS011;23239;51.504;7.456;2022-12-10T13:23:28;62.3;;;41.7;;
37365;SDS011;23239;51.504;7.456;2022-12-10T13:28:28;58.1;;;40.5;;
37365;SDS011;23239;51.504;7.456;2022-12-10T13:33:13;57;;;40;;
37365;SDS011;23239;51.504;7.456;2022-12-10T13:38:19;56.3;;;39;;
37365;SDS011;23239;51.504;7.456;2022-12-10T13:43:22;60;;;40;;
37365;SDS011;23239;51.504;7.456;2022-12-10T13:48:28;56.8;;;39;;
37365;SDS011;23239;51.504;7.456;2022-12-10T13:53:13;61.4;;;41.9;;
37365;SDS011;23239;51.504;7.456;2022-12-10T13:58:43;63.5;;;43.3;;
37365;SDS011;23239;51.504;7.456;2022-12-10T14:03:27;62.6;;;44.1;;
37365;SDS011;23239;51.504;7.456;2022-12-10T14:08:11;66.1;;;44.4;;
37365;SDS011;23239;51.504;7.456;2022-12-10T14:13:11;62.4;;;42.6;;
37365;SDS011;23239;51.504;7.456;2022-12-10T14:18:11;59.6;;;41.4;;
37365;SDS011;23239;51.504;7.456;2022-12-10T14:23:19;64.5;;;43.4;;
37365;SDS011;23239;51.504;7.456;2022-12-10T14:28:11;60.2;;;38.4;;
37365;SDS011;23239;51.504;7.456;2022-12-10T14:33:12;58.2;;;40.1;;
37365;SDS011;23239;51.504;7.456;2022-12-10T14:38:14;54.8;;;38.6;;
37365;SDS011;23239;51.504;7.456;2022-12-10T14:43:11;59.2;;;41.3;;
37365;SDS011;23239;51.504;7.456;2022-12-10T14:48:10;57.1;;;41;;
37365;SDS011;23239;51.504;7.456;2022-12-10T14:53:11;58.8;;;41.3;;
37365;SDS011;23239;51.504;7.456;2022-12-10T14:58:11;60.6;;;41.4;;
37365;SDS011;23239;51.504;7.456;2022-12-10T15:03:11;59;;;41.3;;
37365;SDS011;23239;51.504;7.456;2022-12-10T15:08:13;58.4;;;41.3;;
37365;SDS011;23239;51.504;7.456;2022-12-10T15:13:14;58.7;;;40.2;;
37365;SDS011;23239;51.504;7.456;2022-12-10T15:18:11;60.4;;;42.4;;
37365;SDS011;23239;51.504;7.456;2022-12-10T15:23:15;61.6;;;42.2;;
37365;SDS011;23239;51.504;7.456;2022-12-10T15:28:19;61.4;;;42.3;;
37365;SDS011;23239;51.504;7.456;2022-12-10T15:33:18;57.2;;;40.1;;
37365;SDS011;23239;51.504;7.456;2022-12-10T15:38:10;55.5;;;39.6;;
37365;SDS011;23239;51.504;7.456;2022-12-10T15:43:11;56.4;;;40.7;;
37365;SDS011;23239;51.504;7.456;2022-12-10T15:48:11;55.5;;;39.3;;
37365;SDS011;23239;51.504;7.456;2022-12-10T15:53:10;56.5;;;40.2;;
37365;SDS011;23239;51.504;7.456;2022-12-10T15:58:11;56.5;;;39.8;;
37365;SDS011;23239;51.504;7.456;2022-12-10T16:03:11;54.4;;;35.6;;
37365;SDS011;23239;51.504;7.456;2022-12-10T16:08:11;56.5;;;37;;
37365;SDS011;23239;51.504;7.456;2022-12-10T16:13:11;56.8;;;36.7;;
37365;SDS011;23239;51.504;7.456;2022-12-10T16:18:10;56.6;;;37.9;;
37365;SDS011;23239;51.504;7.456;2022-12-10T16:23:10;59.9;;;43.6;;
37365;SDS011;23239;51.504;7.456;2022-12-10T16:28:11;56.7;;;38.7;;
37365;SDS011;23239;51.504;7.456;2022-12-10T16:33:10;62;;;42.5;;
37365;SDS011;23239;51.504;7.456;2022-12-10T16:38:10;60.8;;;42.2;;
37365;SDS011;23239;51.504;7.456;2022-12-10T16:43:11;63;;;45.2;;
37365;SDS011;23239;51.504;7.456;2022-12-10T16:48:10;68.3;;;44.6;;
37365;SDS011;23239;51.504;7.456;2022-12-10T16:53:14;63.8;;;42.4;;
37365;SDS011;23239;51.504;7.456;2022-12-10T16:58:11;75.5;;;50.3;;
37365;SDS011;23239;51.504;7.456;2022-12-10T17:03:10;73.6;;;49.3;;
37365;SDS011;23239;51.504;7.456;2022-12-10T17:08:10;74.7;;;49.3;;
37365;SDS011;23239;51.504;7.456;2022-12-10T17:13:10;73.7;;;49.4;;
37365;SDS011;23239;51.504;7.456;2022-12-10T17:18:11;76.4;;;47;;
37365;SDS011;23239;51.504;7.456;2022-12-10T17:23:10;74.5;;;47.9;;
37365;SDS011;23239;51.504;7.456;2022-12-10T17:28:12;74.1;;;46.1;;
37365;SDS011;23239;51.504;7.456;2022-12-10T17:33:11;75.7;;;48.1;;
37365;SDS011;23239;51.504;7.456;2022-12-10T17:38:13;81.7;;;52.3;;
37365;SDS011;23239;51.504;7.456;2022-12-10T17:43:11;82.6;;;51.7;;
37365;SDS011;23239;51.504;7.456;2022-12-10T17:48:11;85.1;;;52;;
37365;SDS011;23239;51.504;7.456;2022-12-10T17:53:11;90.5;;;52.3;;
37365;SDS011;23239;51.504;7.456;2022-12-10T17:58:11;88.6;;;54.6;;
37365;SDS011;23239;51.504;7.456;2022-12-10T18:03:10;88.8;;;56.9;;
37365;SDS011;23239;51.504;7.456;2022-12-10T18:08:11;85.4;;;50.7;;
37365;SDS011;23239;51.504;7.456;2022-12-10T18:13:10;85.8;;;50.5;;
37365;SDS011;23239;51.504;7.456;2022-12-10T18:18:10;85.3;;;51.5;;
37365;SDS011;23239;51.504;7.456;2022-12-10T18:23:10;80.7;;;48.8;;
37365;SDS011;23239;51.504;7.456;2022-12-10T18:28:15;71.6;;;45;;
37365;SDS011;23239;51.504;7.456;2022-12-10T18:33:10;70.6;;;44.3;;
37365;SDS011;23239;51.504;7.456;2022-12-10T18:38:11;68.4;;;44.2;;
37365;SDS011;23239;51.504;7.456;2022-12-10T18:43:10;61.9;;;37.5;;
37365;SDS011;23239;51.504;7.456;2022-12-10T18:48:10;66.7;;;41.5;;
37365;SDS011;23239;51.504;7.456;2022-12-10T18:53:10;68.8;;;45.3;;
37365;SDS011;23239;51.504;7.456;2022-12-10T18:58:10;66.3;;;41.7;;
37365;SDS011;23239;51.504;7.456;2022-12-10T19:03:10;68.6;;;43.2;;
37365;SDS011;23239;51.504;7.456;2022-12-10T19:08:11;69.5;;;42.4;;
37365;SDS011;23239;51.504;7.456;2022-12-10T19:13:10;68.6;;;44.8;;
37365;SDS011;23239;51.504;7.456;2022-12-10T19:18:11;71.7;;;44.5;;
37365;SDS011;23239;51.504;7.456;2022-12-10T19:23:10;65.1;;;43.4;;
37365;SDS011;23239;51.504;7.456;2022-12-10T19:28:11;65.6;;;42;;
37365;SDS011;23239;51.504;7.456;2022-12-10T19:33:10;68.3;;;41.6;;
37365;SDS011;23239;51.504;7.456;2022-12-10T19:38:10;66.1;;;40.7;;
37365;SDS011;23239;51.504;7.456;2022-12-10T19:43:10;69.4;;;42.1;;
37365;SDS011;23239;51.504;7.456;2022-12-10T19:48:10;67.8;;;42.5;;
37365;SDS011;23239;51.504;7.456;2022-12-10T19:53:10;73.1;;;44.5;;
37365;SDS011;23239;51.504;7.456;2022-12-10T19:58:10;72.8;;;44.2;;
37365;SDS011;23239;51.504;7.456;2022-12-10T20:03:10;69;;;42.7;;
37365;SDS011;23239;51.504;7.456;2022-12-10T20:08:10;69.9;;;42.6;;
37365;SDS011;23239;51.504;7.456;2022-12-10T20:13:10;69.1;;;42.7;;
37365;SDS011;23239;51.504;7.456;2022-12-10T20:18:10;69.4;;;43.5;;
37365;SDS011;23239;51.504;7.456;2022-12-10T20:23:10;68;;;41.4;;
37365;SDS011;23239;51.504;7.456;2022-12-10T20:28:10;71.8;;;44.3;;
37365;SDS011;23239;51.504;7.456;2022-12-10T20:33:10;66;;;43;;
37365;SDS011;23239;51.504;7.456;2022-12-10T20:38:10;73.9;;;46.7;;
37365;SDS011;23239;51.504;7.456;2022-12-10T20:43:10;67.3;;;44.1;;
37365;SDS011;23239;51.504;7.456;2022-12-10T20:48:10;69.9;;;44;;
37365;SDS011;23239;51.504;7.456;2022-12-10T20:53:10;70.1;;;44;;
37365;SDS011;23239;51.504;7.456;2022-12-10T20:58:10;62.3;;;42;;
37365;SDS011;23239;51.504;7.456;2022-12-10T21:03:10;62.5;;;41.7;;
37365;SDS011;23239;51.504;7.456;2022-12-10T21:08:10;55.3;;;38.3;;
37365;SDS011;23239;51.504;7.456;2022-12-10T21:13:10;58.1;;;38.1;;
37365;SDS011;23239;51.504;7.456;2022-12-10T21:18:10;58.5;;;39.2;;
37365;SDS011;23239;51.504;7.456;2022-12-10T21:23:11;60.6;;;40;;
37365;SDS011;23239;51.504;7.456;2022-12-10T21:28:10;59;;;37;;
37365;SDS011;23239;51.504;7.456;2022-12-10T21:33:10;58;;;37.8;;
37365;SDS011;23239;51.504;7.456;2022-12-10T21:38:10;54.7;;;37.7;;
37365;SDS011;23239;51.504;7.456;2022-12-10T21:43:11;59.7;;;38.8;;
37365;SDS011;23239;51.504;7.456;2022-12-10T21:48:10;57.3;;;37.9;;
37365;SDS011;23239;51.504;7.456;2022-12-10T21:53:10;54.5;;;36.7;;
37365;SDS011;23239;51.504;7.456;2022-12-10T21:58:11;55.9;;;36.5;;
37365;SDS011;23239;51.504;7.456;2022-12-10T22:03:10;53.6;;;35.4;;
37365;SDS011;23239;51.504;7.456;2022-12-10T22:08:10;58.8;;;37;;
37365;SDS011;23239;51.504;7.456;2022-12-10T22:13:10;55.1;;;37.1;;
37365;SDS011;23239;51.504;7.456;2022-12-10T22:18:10;55.5;;;36.2;;
37365;SDS011;23239;51.504;7.456;2022-12-10T22:23:11;50.6;;;34.4;;
37365;SDS011;23239;51.504;7.456;2022-12-10T22:28:10;49.2;;;32.9;;
37365;SDS011;23239;51.504;7.456;2022-12-10T22:33:10;50.7;;;33.2;;
37365;SDS011;23239;51.504;7.456;2022-12-10T22:38:10;49.4;;;31.6;;
37365;SDS011;23239;51.504;7.456;2022-12-10T22:43:10;47;;;31.5;;
37365;SDS011;23239;51.504;7.456;2022-12-10T22:48:10;48.4;;;30.3;;
37365;SDS011;23239;51.504;7.456;2022-12-10T22:53:10;50.3;;;31.6;;
37365;SDS011;23239;51.504;7.456;2022-12-10T22:58:10;48.6;;;31.3;;
37365;SDS011;23239;51.504;7.456;2022-12-10T23:03:10;48.7;;;32.7;;
37365;SDS011;23239;51.504;7.456;2022-12-10T23:08:10;53.2;;;34.1;;
37365;SDS011;23239;51.504;7.456;2022-12-10T23:13:11;50.6;;;32.3;;
37365;SDS011;23239;51.504;7.456;2022-12-10T23:18:10;51.9;;;33.9;;
37365;SDS011;23239;51.504;7.456;2022-12-10T23:23:10;52.6;;;34.9;;
37365;SDS011;23239;51.504;7.456;2022-12-10T23:28:10;50.7;;;31.8;;
37365;SDS011;23239;51.504;7.456;2022-12-10T23:33:10;50.5;;;33.6;;
37365;SDS011;23239;51.504;7.456;2022-12-10T23:38:10;49;;;30.7;;
37365;SDS011;23239;51.504;7.456;2022-12-10T23:43:11;49.1;;;33.5;;
37365;SDS011;23239;51.504;7.456;2022-12-10T23:48:10;54.3;;;34.2;;
37365;SDS011;23239;51.504;7.456;2022-12-10T23:53:10;54.2;;;35;;
37365;SDS011;23239;51.504;7.456;2022-12-10T23:58:10;53.5;;;35.8;;
